Time;durP1;ratioP1;P1;durP2;ratioP2;P2;SDS_P1;SDS_P2;PMS_P1;PMS_P2;Temp;Humidity;BMP_temperature;BMP_pressure;BME280_temperature;BME280_humidity;BME280_pressure;Samples;Min_cycle;Max_cycle;Signal;HPM_P1;HPM_P2
2021/12/23 00:01:55;;;;;;;32.37;15.87;;;-1.20;99.90;;;;;;5013193;28;20105;-57
2021/12/23 00:04:21;;;;;;;31.33;16.63;;;-1.10;99.90;;;;;;4992650;28;20046;-54
2021/12/23 00:06:46;;;;;;;25.93;14.17;;;-1.10;99.90;;;;;;5000307;28;20026;-56
2021/12/23 00:09:12;;;;;;;28.83;15.63;;;-1.10;99.90;;;;;;5003506;28;20029;-52
2021/12/23 00:11:39;;;;;;;30.23;15.40;;;-1.10;99.90;;;;;;5003894;28;20101;-57
2021/12/23 00:14:07;;;;;;;30.07;15.67;;;-1.10;99.90;;;;;;5002086;28;20032;-50
2021/12/23 00:16:47;;;;;;;28.97;15.70;;;-1.10;99.90;;;;;;5012099;28;20030;-58
2021/12/23 00:19:23;;;;;;;28.73;15.40;;;-1.10;99.90;;;;;;5010463;28;20057;-57
2021/12/23 00:24:42;;;;;;;30.80;15.50;;;-1.10;99.90;;;;;;4979903;28;20201;-57
2021/12/23 00:27:09;;;;;;;27.07;15.70;;;-1.10;99.90;;;;;;4995349;28;20121;-57
2021/12/23 00:29:35;;;;;;;28.17;15.67;;;-1.10;99.90;;;;;;5005686;28;20033;-54
2021/12/23 00:32:05;;;;;;;37.67;15.93;;;-1.20;99.90;;;;;;4996692;28;20042;-56
2021/12/23 00:34:31;;;;;;;27.53;15.40;;;-1.20;99.90;;;;;;4994760;28;20137;-56
2021/12/23 00:36:58;;;;;;;28.90;16.20;;;-1.10;99.90;;;;;;4999595;28;20030;-55
2021/12/23 00:39:25;;;;;;;26.83;14.83;;;-1.20;99.90;;;;;;4999294;28;20511;-57
2021/12/23 00:41:52;;;;;;;29.63;15.70;;;-1.20;99.90;;;;;;4993993;28;20129;-53
2021/12/23 00:44:18;;;;;;;29.90;16.20;;;-1.20;99.90;;;;;;4995426;28;20037;-55
2021/12/23 00:46:44;;;;;;;31.43;16.20;;;-1.20;99.90;;;;;;4998448;28;20414;-53
2021/12/23 00:49:09;;;;;;;30.60;16.33;;;-1.20;99.90;;;;;;4992701;28;20030;-55
2021/12/23 00:51:35;;;;;;;32.30;16.90;;;-1.20;99.90;;;;;;4999549;28;20036;-58
2021/12/23 00:54:05;;;;;;;30.20;16.30;;;-1.20;99.90;;;;;;4993326;28;20053;-56
2021/12/23 00:56:35;;;;;;;29.33;15.37;;;-1.20;99.90;;;;;;4997728;28;20033;-53
2021/12/23 00:59:02;;;;;;;28.17;15.53;;;-1.20;99.90;;;;;;5001657;28;20126;-59
2021/12/23 01:01:28;;;;;;;31.73;15.40;;;-1.20;99.90;;;;;;4997007;28;20037;-57
2021/12/23 01:03:53;;;;;;;29.60;16.60;;;-1.20;99.90;;;;;;4983764;28;20053;-56
2021/12/23 01:06:19;;;;;;;31.70;16.27;;;-1.20;99.90;;;;;;5012857;28;20098;-56
2021/12/23 01:08:45;;;;;;;30.20;16.90;;;-1.20;99.90;;;;;;4994751;28;20160;-55
2021/12/23 01:11:10;;;;;;;30.50;15.97;;;-1.10;99.90;;;;;;5012577;28;20037;-55
2021/12/23 01:13:37;;;;;;;30.83;15.43;;;-1.10;99.90;;;;;;4998875;28;20034;-58
2021/12/23 01:16:07;;;;;;;32.90;15.97;;;-1.10;99.90;;;;;;4996411;28;20530;-52
2021/12/23 01:18:41;;;;;;;27.97;15.67;;;-1.10;99.90;;;;;;4995493;28;20228;-58
2021/12/23 01:21:16;;;;;;;32.30;15.87;;;-1.10;99.90;;;;;;4994628;28;20037;-57
2021/12/23 01:23:51;;;;;;;31.83;16.43;;;-1.10;99.90;;;;;;5001833;28;20034;-57
2021/12/23 01:26:20;;;;;;;31.00;16.20;;;-1.10;99.90;;;;;;4996170;28;20639;-59
2021/12/23 01:28:48;;;;;;;30.67;16.67;;;-1.10;99.90;;;;;;4994553;28;20018;-57
2021/12/23 01:31:14;;;;;;;28.80;15.53;;;-1.20;99.90;;;;;;4995908;28;20438;-57
2021/12/23 01:33:40;;;;;;;31.40;17.00;;;-1.20;99.90;;;;;;4994805;28;21544;-56
2021/12/23 01:36:06;;;;;;;29.33;16.13;;;-1.30;99.90;;;;;;5002371;28;20112;-54
2021/12/23 01:38:31;;;;;;;40.23;17.53;;;-1.30;99.90;;;;;;4999133;28;20470;-59
2021/12/23 01:40:57;;;;;;;28.70;16.63;;;-1.30;99.90;;;;;;4996573;28;20491;-51
2021/12/23 01:43:22;;;;;;;30.37;17.00;;;-1.40;99.90;;;;;;5001677;28;20380;-55
2021/12/23 01:45:49;;;;;;;32.27;16.57;;;-1.40;99.90;;;;;;4980954;28;20160;-56
2021/12/23 01:48:17;;;;;;;34.20;16.70;;;-1.40;99.90;;;;;;4995348;28;20030;-57
2021/12/23 01:50:43;;;;;;;30.63;16.40;;;-1.40;99.90;;;;;;4995632;28;20468;-55
2021/12/23 01:53:09;;;;;;;29.03;15.87;;;-1.40;99.90;;;;;;4992528;28;20030;-55
2021/12/23 01:55:36;;;;;;;37.27;17.17;;;-1.40;99.90;;;;;;4999337;28;20030;-55
2021/12/23 01:58:04;;;;;;;31.53;16.47;;;-1.50;99.90;;;;;;4992071;28;20065;-55
2021/12/23 02:00:33;;;;;;;35.27;16.17;;;-1.50;99.90;;;;;;4992172;28;20034;-57
2021/12/23 02:02:59;;;;;;;35.60;17.60;;;-1.50;99.90;;;;;;4995396;28;20026;-55
2021/12/23 02:05:25;;;;;;;36.30;17.57;;;-1.50;99.90;;;;;;4989671;28;20175;-55
2021/12/23 02:07:50;;;;;;;34.33;17.33;;;-1.50;99.90;;;;;;4996402;28;20112;-57
2021/12/23 02:10:16;;;;;;;32.13;17.20;;;-1.50;99.90;;;;;;4999200;28;20053;-53
2021/12/23 02:12:46;;;;;;;33.67;16.80;;;-1.50;99.90;;;;;;4997994;28;20549;-57
2021/12/23 02:15:14;;;;;;;34.40;18.90;;;-1.60;99.90;;;;;;5000236;28;20926;-58
2021/12/23 02:17:41;;;;;;;31.47;16.27;;;-1.60;99.90;;;;;;5002895;28;20107;-59
2021/12/23 02:20:16;;;;;;;32.93;16.37;;;-1.60;99.90;;;;;;5001681;28;20025;-57
2021/12/23 02:22:42;;;;;;;36.63;17.53;;;-1.60;99.90;;;;;;5000091;28;20034;-52
2021/12/23 02:25:09;;;;;;;35.30;17.10;;;-1.60;99.90;;;;;;4997616;28;20053;-53
2021/12/23 02:27:35;;;;;;;32.63;16.10;;;-1.60;99.90;;;;;;5003077;28;20028;-54
2021/12/23 02:30:06;;;;;;;40.10;18.80;;;-1.60;99.90;;;;;;4994759;28;20109;-57
2021/12/23 02:32:33;;;;;;;33.57;15.97;;;-1.50;99.90;;;;;;4997389;28;20438;-51
2021/12/23 02:34:59;;;;;;;30.77;17.00;;;-1.50;99.90;;;;;;4994735;28;20034;-53
2021/12/23 02:37:25;;;;;;;27.60;15.60;;;-1.50;99.90;;;;;;5000592;28;20037;-55
2021/12/23 02:39:50;;;;;;;31.80;17.10;;;-1.40;99.90;;;;;;5001243;28;20031;-52
2021/12/23 02:42:16;;;;;;;33.70;17.17;;;-1.40;99.90;;;;;;4997509;28;20022;-52
2021/12/23 02:44:41;;;;;;;33.87;16.60;;;-1.30;99.90;;;;;;4997003;28;20030;-55
2021/12/23 02:47:07;;;;;;;31.80;17.37;;;-1.40;99.90;;;;;;4993508;28;20057;-49
2021/12/23 02:49:33;;;;;;;30.17;16.73;;;-1.40;99.90;;;;;;4999102;28;20053;-59
2021/12/23 02:51:59;;;;;;;30.60;17.37;;;-1.30;99.90;;;;;;5001406;28;20053;-58
2021/12/23 02:54:24;;;;;;;33.40;16.47;;;-1.30;99.90;;;;;;4997059;28;20073;-58
2021/12/23 02:56:50;;;;;;;31.97;17.27;;;-1.30;99.90;;;;;;4994454;28;20176;-58
2021/12/23 02:59:15;;;;;;;29.53;16.40;;;-1.20;99.90;;;;;;5001697;28;20482;-56
2021/12/23 03:01:41;;;;;;;37.40;18.20;;;-1.20;99.90;;;;;;4996269;28;20126;-59
2021/12/23 03:04:07;;;;;;;32.90;17.63;;;-1.10;99.90;;;;;;4979257;28;20507;-61
2021/12/23 03:06:32;;;;;;;32.80;17.07;;;-1.10;99.90;;;;;;4996772;28;20065;-58
2021/12/23 03:09:01;;;;;;;31.37;16.67;;;-1.10;99.90;;;;;;4993984;28;20109;-59
2021/12/23 03:11:29;;;;;;;33.30;16.87;;;-1.10;99.90;;;;;;4996883;28;20044;-56
2021/12/23 03:13:56;;;;;;;38.17;16.80;;;-1.10;99.90;;;;;;4994503;28;20098;-56
2021/12/23 03:16:24;;;;;;;32.43;17.77;;;-1.00;99.90;;;;;;4999959;28;20031;-57
2021/12/23 03:18:50;;;;;;;34.60;17.60;;;-0.90;99.90;;;;;;4994066;28;20582;-56
2021/12/23 03:21:16;;;;;;;31.03;17.50;;;-1.00;99.90;;;;;;4995788;28;20121;-56
2021/12/23 03:23:42;;;;;;;31.80;17.70;;;-1.00;99.90;;;;;;4991669;28;20041;-57
2021/12/23 03:26:08;;;;;;;34.87;19.37;;;-1.00;99.90;;;;;;5003233;28;20058;-59
2021/12/23 03:28:34;;;;;;;36.27;18.07;;;-1.00;99.90;;;;;;4998211;28;20041;-58
2021/12/23 03:31:00;;;;;;;40.97;16.73;;;-1.10;99.90;;;;;;4999891;28;20065;-56
2021/12/23 03:33:26;;;;;;;33.50;18.17;;;-1.10;99.90;;;;;;5002733;28;20026;-58
2021/12/23 03:35:51;;;;;;;31.73;17.50;;;-1.10;99.90;;;;;;5000799;28;20077;-56
2021/12/23 03:38:18;;;;;;;33.03;16.20;;;-1.00;99.90;;;;;;4999598;28;20065;-52
2021/12/23 03:40:46;;;;;;;31.53;17.97;;;-1.00;99.90;;;;;;4999314;28;20562;-58
2021/12/23 03:43:12;;;;;;;34.13;17.23;;;-1.00;99.90;;;;;;5000386;28;20030;-56
2021/12/23 03:45:44;;;;;;;34.67;16.50;;;-0.90;99.90;;;;;;4998605;28;20041;-57
2021/12/23 03:48:14;;;;;;;39.37;18.73;;;-0.90;99.90;;;;;;4996090;28;20126;-58
2021/12/23 03:50:41;;;;;;;34.33;17.93;;;-0.90;99.90;;;;;;4998841;28;20029;-56
2021/12/23 03:53:07;;;;;;;29.97;17.13;;;-0.80;99.90;;;;;;4994058;28;20348;-55
2021/12/23 03:55:33;;;;;;;35.43;18.13;;;-0.80;99.90;;;;;;5005640;28;20484;-53
2021/12/23 03:57:58;;;;;;;32.50;16.50;;;-0.80;99.90;;;;;;4998198;28;20023;-57
2021/12/23 04:00:24;;;;;;;33.03;18.17;;;-0.80;99.90;;;;;;4997128;28;20498;-56
2021/12/23 04:02:51;;;;;;;34.53;18.03;;;-0.90;99.90;;;;;;5001233;28;20534;-56
2021/12/23 04:05:19;;;;;;;33.93;16.77;;;-0.90;99.90;;;;;;4992644;28;20106;-56
2021/12/23 04:07:45;;;;;;;36.13;18.63;;;-0.90;99.90;;;;;;5016865;28;20025;-56
2021/12/23 04:10:13;;;;;;;41.20;19.17;;;-0.90;99.90;;;;;;5000256;28;20044;-56
2021/12/23 04:12:39;;;;;;;30.50;17.17;;;-0.90;99.90;;;;;;4997162;28;20026;-54
2021/12/23 04:15:05;;;;;;;35.17;18.50;;;-0.90;99.90;;;;;;4995372;28;20101;-54
2021/12/23 04:17:31;;;;;;;35.50;17.83;;;-0.90;99.90;;;;;;4995842;28;20152;-57
2021/12/23 04:20:09;;;;;;;36.07;19.23;;;-1.00;99.90;;;;;;4995274;28;20497;-57
2021/12/23 04:22:35;;;;;;;34.43;17.63;;;-1.00;99.90;;;;;;4994357;28;20042;-57
2021/12/23 04:25:00;;;;;;;32.47;17.17;;;-1.00;99.90;;;;;;4999204;28;20029;-58
2021/12/23 04:27:26;;;;;;;35.03;18.07;;;-1.00;99.90;;;;;;4998421;28;20574;-56
2021/12/23 04:29:51;;;;;;;35.43;19.07;;;-1.00;99.90;;;;;;4997518;28;20022;-56
2021/12/23 04:32:17;;;;;;;33.47;17.47;;;-1.00;99.90;;;;;;5006240;28;20806;-54
2021/12/23 04:34:43;;;;;;;34.23;18.50;;;-1.00;99.90;;;;;;5003674;28;20034;-54
2021/12/23 04:37:08;;;;;;;40.17;20.80;;;-1.00;99.90;;;;;;4998237;28;20120;-57
2021/12/23 04:39:34;;;;;;;36.93;19.50;;;-1.00;99.90;;;;;;4998970;28;20072;-57
2021/12/23 04:41:59;;;;;;;39.37;19.90;;;-1.00;99.90;;;;;;5001651;28;20057;-55
2021/12/23 04:44:25;;;;;;;36.97;18.63;;;-1.00;99.90;;;;;;5003615;28;21816;-56
2021/12/23 04:46:50;;;;;;;39.07;20.80;;;-1.00;99.90;;;;;;5000263;28;20504;-56
2021/12/23 04:49:16;;;;;;;43.37;20.50;;;-1.00;99.90;;;;;;5002463;28;20088;-57
2021/12/23 04:51:41;;;;;;;39.47;19.20;;;-1.00;99.90;;;;;;4999958;28;20031;-58
2021/12/23 04:54:07;;;;;;;39.67;19.57;;;-1.00;99.90;;;;;;5003430;28;20109;-53
2021/12/23 04:56:32;;;;;;;40.50;19.87;;;-1.10;99.90;;;;;;4998270;28;20053;-58
2021/12/23 04:58:58;;;;;;;42.73;20.40;;;-1.10;99.90;;;;;;4994748;28;20050;-57
2021/12/23 05:01:29;;;;;;;41.10;20.63;;;-1.20;99.90;;;;;;4996744;28;20041;-60
2021/12/23 05:03:55;;;;;;;37.33;19.57;;;-1.20;99.90;;;;;;4987901;28;20045;-59
2021/12/23 05:06:21;;;;;;;41.23;21.60;;;-1.20;99.90;;;;;;5000141;28;20030;-59
2021/12/23 05:08:47;;;;;;;35.37;19.40;;;-1.20;99.90;;;;;;4995059;28;20029;-58
2021/12/23 05:11:12;;;;;;;39.50;20.03;;;-1.10;99.90;;;;;;4996530;28;20460;-55
2021/12/23 05:13:38;;;;;;;36.97;19.43;;;-1.10;99.90;;;;;;4997004;28;20026;-58
2021/12/23 05:16:04;;;;;;;36.20;19.07;;;-1.10;99.90;;;;;;4997290;28;20018;-56
2021/12/23 05:18:30;;;;;;;39.87;19.00;;;-1.10;99.90;;;;;;4997470;28;20038;-57
2021/12/23 05:20:56;;;;;;;39.60;19.37;;;-1.10;99.90;;;;;;4996995;28;20496;-59
2021/12/23 05:23:21;;;;;;;42.07;20.63;;;-1.10;99.90;;;;;;4996428;28;20045;-57
2021/12/23 05:25:47;;;;;;;37.67;21.17;;;-1.20;99.90;;;;;;4995059;28;20463;-56
2021/12/23 05:28:13;;;;;;;44.87;20.93;;;-1.20;99.90;;;;;;5000753;28;20034;-58
2021/12/23 05:30:39;;;;;;;36.13;18.33;;;-1.20;99.90;;;;;;4999142;28;20060;-56
2021/12/23 05:33:05;;;;;;;42.03;21.17;;;-1.30;99.90;;;;;;4994585;28;20034;-57
2021/12/23 05:35:30;;;;;;;37.87;19.70;;;-1.30;99.90;;;;;;4994619;28;20030;-60
2021/12/23 05:37:56;;;;;;;40.00;19.73;;;-1.30;99.90;;;;;;4999907;28;20033;-59
2021/12/23 05:40:24;;;;;;;38.73;20.17;;;-1.30;99.90;;;;;;4997271;28;20026;-57
2021/12/23 05:42:51;;;;;;;41.90;20.83;;;-1.40;99.90;;;;;;4993251;28;20026;-59
2021/12/23 05:45:18;;;;;;;36.50;20.07;;;-1.40;99.90;;;;;;4996555;28;20096;-59
2021/12/23 05:47:45;;;;;;;39.23;20.27;;;-1.40;99.90;;;;;;5000313;28;20559;-57
2021/12/23 05:50:12;;;;;;;39.97;20.07;;;-1.50;99.90;;;;;;4996504;28;20057;-56
2021/12/23 05:52:38;;;;;;;36.70;19.43;;;-1.60;99.90;;;;;;5000628;28;20030;-60
2021/12/23 05:55:05;;;;;;;46.77;21.57;;;-1.60;99.90;;;;;;5000101;28;20395;-55
2021/12/23 05:57:31;;;;;;;42.10;21.43;;;-1.60;99.90;;;;;;5001650;28;20033;-53
2021/12/23 05:59:57;;;;;;;43.90;20.20;;;-1.60;99.90;;;;;;4997892;28;20587;-57
2021/12/23 06:02:23;;;;;;;43.43;21.43;;;-1.60;99.90;;;;;;5005165;28;20033;-56
2021/12/23 06:04:49;;;;;;;40.67;21.83;;;-1.60;99.90;;;;;;4985003;28;20132;-53
2021/12/23 06:07:14;;;;;;;38.77;20.17;;;-1.60;99.90;;;;;;5007080;28;20057;-56
2021/12/23 06:09:40;;;;;;;42.83;21.10;;;-1.60;99.90;;;;;;5008181;28;20037;-57
2021/12/23 06:12:06;;;;;;;40.60;21.10;;;-1.60;99.90;;;;;;5006166;28;20057;-57
2021/12/23 06:14:32;;;;;;;40.47;20.73;;;-1.60;99.90;;;;;;5010339;28;20033;-57
2021/12/23 06:16:57;;;;;;;43.90;22.50;;;-1.60;99.90;;;;;;5004729;28;20026;-52
2021/12/23 06:19:23;;;;;;;41.90;22.17;;;-1.50;99.90;;;;;;5005589;28;20041;-56
2021/12/23 06:21:48;;;;;;;43.33;21.57;;;-1.50;99.90;;;;;;4996522;28;20028;-56
2021/12/23 06:24:14;;;;;;;42.43;23.33;;;-1.50;99.90;;;;;;4998373;28;20213;-53
2021/12/23 06:26:41;;;;;;;34.70;19.03;;;-1.50;99.90;;;;;;4994559;28;20045;-55
2021/12/23 06:29:06;;;;;;;38.50;20.93;;;-1.40;99.90;;;;;;4994125;28;20034;-62
2021/12/23 06:31:32;;;;;;;45.50;21.30;;;-1.40;99.90;;;;;;4990312;28;20109;-55
2021/12/23 06:33:57;;;;;;;46.17;21.60;;;-1.40;99.90;;;;;;4992376;28;20034;-59
2021/12/23 06:36:23;;;;;;;41.70;20.50;;;-1.30;99.90;;;;;;4990309;28;20113;-55
2021/12/23 06:38:49;;;;;;;40.57;20.57;;;-1.30;99.90;;;;;;4994960;28;20106;-56
2021/12/23 06:41:16;;;;;;;41.80;20.43;;;-1.30;99.90;;;;;;5001420;28;20526;-55
2021/12/23 06:43:42;;;;;;;42.23;21.87;;;-1.20;99.90;;;;;;5003688;28;20048;-55
2021/12/23 06:46:08;;;;;;;38.47;19.27;;;-1.10;99.90;;;;;;4996558;28;20044;-56
2021/12/23 06:48:34;;;;;;;40.53;20.30;;;-1.10;99.90;;;;;;4998203;28;20026;-58
2021/12/23 06:51:00;;;;;;;39.23;20.73;;;-1.10;99.90;;;;;;4994915;28;20062;-58
2021/12/23 06:53:26;;;;;;;39.60;20.53;;;-1.00;99.90;;;;;;4998831;28;20026;-59
2021/12/23 06:55:54;;;;;;;49.57;21.17;;;-1.00;99.90;;;;;;4996674;28;20042;-55
2021/12/23 06:58:22;;;;;;;37.63;19.80;;;-1.00;99.90;;;;;;4991030;28;20065;-49
2021/12/23 07:00:49;;;;;;;37.23;18.63;;;-1.00;99.90;;;;;;4993010;28;20034;-56
2021/12/23 07:03:14;;;;;;;37.07;19.77;;;-1.00;99.90;;;;;;4992787;28;20030;-54
2021/12/23 07:05:40;;;;;;;36.05;19.92;;;-1.00;99.90;;;;;;4979374;28;20054;-58
2021/12/23 07:08:11;;;;;;;37.20;19.17;;;-1.00;99.90;;;;;;4993172;28;20038;-57
2021/12/23 07:10:37;;;;;;;40.17;20.90;;;-1.00;99.90;;;;;;5002201;28;20029;-54
2021/12/23 07:13:03;;;;;;;39.60;19.73;;;-0.90;99.90;;;;;;4999965;28;20129;-53
2021/12/23 07:15:29;;;;;;;34.83;19.40;;;-0.90;99.90;;;;;;4996298;28;20138;-57
2021/12/23 07:17:56;;;;;;;41.72;20.45;;;-0.90;99.90;;;;;;4995461;28;20381;-56
2021/12/23 07:20:24;;;;;;;40.92;20.50;;;-0.80;99.90;;;;;;4995862;28;20065;-57
2021/12/23 07:22:49;;;;;;;38.80;19.97;;;-0.80;99.90;;;;;;4990846;28;20050;-53
2021/12/23 07:25:15;;;;;;;42.10;21.53;;;-0.80;99.90;;;;;;4992656;28;20038;-57
2021/12/23 07:27:41;;;;;;;43.23;20.67;;;-0.80;99.90;;;;;;4992881;28;20089;-58
2021/12/23 07:30:09;;;;;;;40.47;21.03;;;-0.80;99.90;;;;;;4994113;28;20034;-58
2021/12/23 07:32:34;;;;;;;39.65;20.50;;;-0.80;99.90;;;;;;4997131;28;20409;-55
2021/12/23 07:35:00;;;;;;;38.20;20.20;;;-0.70;99.90;;;;;;4993588;28;20117;-58
2021/12/23 07:37:26;;;;;;;36.50;20.17;;;-0.70;99.90;;;;;;5002970;28;20045;-58
2021/12/23 07:39:54;;;;;;;44.23;18.77;;;-0.70;99.90;;;;;;4995268;28;20114;-59
2021/12/23 07:42:20;;;;;;;37.67;20.43;;;-0.70;99.90;;;;;;4994301;28;20475;-52
2021/12/23 07:44:46;;;;;;;40.05;19.60;;;-0.60;99.90;;;;;;4999038;28;20033;-54
2021/12/23 07:47:13;;;;;;;43.72;20.52;;;-0.60;99.90;;;;;;4992087;28;20038;-57
2021/12/23 07:49:41;;;;;;;36.53;19.83;;;-0.60;99.90;;;;;;4993628;28;20026;-58
2021/12/23 07:52:07;;;;;;;35.92;19.38;;;-0.60;99.90;;;;;;4997818;28;20043;-57
2021/12/23 07:54:34;;;;;;;36.92;19.55;;;-0.60;99.90;;;;;;5000789;28;20028;-58
2021/12/23 07:57:00;;;;;;;37.13;19.27;;;-0.60;99.90;;;;;;4992343;28;20041;-55
2021/12/23 07:59:28;;;;;;;38.30;20.65;;;-0.60;99.90;;;;;;4993832;28;20542;-58
2021/12/23 08:01:54;;;;;;;43.28;19.75;;;-0.60;99.90;;;;;;4991897;28;20026;-60
2021/12/23 08:04:20;;;;;;;35.55;19.13;;;-0.50;99.90;;;;;;4990989;28;20031;-49
2021/12/23 08:06:51;;;;;;;38.80;20.20;;;-0.50;99.90;;;;;;4981571;28;20084;-58
2021/12/23 08:09:17;;;;;;;37.25;19.90;;;-0.50;99.90;;;;;;4998908;28;20029;-59
2021/12/23 08:11:42;;;;;;;36.78;19.55;;;-0.50;99.90;;;;;;4995373;28;20067;-55
2021/12/23 08:14:08;;;;;;;38.33;19.35;;;-0.50;99.90;;;;;;4994083;28;20039;-56
2021/12/23 08:16:33;;;;;;;41.42;19.27;;;-0.40;99.90;;;;;;4998555;28;20468;-57
2021/12/23 08:18:59;;;;;;;30.83;17.35;;;-0.30;99.90;;;;;;4996597;28;20574;-58
2021/12/23 08:21:28;;;;;;;40.25;17.27;;;-0.20;99.90;;;;;;5002599;28;20022;-59
2021/12/23 08:23:54;;;;;;;38.10;19.08;;;-0.20;99.90;;;;;;4997720;28;20081;-57
2021/12/23 08:26:26;;;;;;;38.58;18.38;;;-0.10;99.90;;;;;;4994323;28;20034;-49
2021/12/23 08:28:52;;;;;;;33.95;17.75;;;-0.20;99.90;;;;;;4998527;28;20356;-57
2021/12/23 08:31:18;;;;;;;40.45;19.63;;;-0.10;99.90;;;;;;4996588;28;20113;-58
2021/12/23 08:33:43;;;;;;;34.65;18.23;;;-0.10;99.90;;;;;;5005016;28;20034;-57
2021/12/23 08:36:09;;;;;;;33.33;17.52;;;-0.10;99.90;;;;;;4994124;28;20037;-59
2021/12/23 08:38:34;;;;;;;42.88;19.38;;;-0.10;99.90;;;;;;4997628;28;20450;-59
2021/12/23 08:41:00;;;;;;;34.55;18.63;;;-0.10;99.90;;;;;;5000316;28;20140;-57
2021/12/23 08:43:26;;;;;;;46.45;19.15;;;-0.10;99.90;;;;;;5006914;28;20038;-57
2021/12/23 08:45:51;;;;;;;33.47;18.88;;;0.00;99.90;;;;;;4993541;28;20080;-56
2021/12/23 08:48:17;;;;;;;38.22;18.73;;;0.10;99.90;;;;;;4993968;28;20110;-57
2021/12/23 08:50:43;;;;;;;36.17;17.92;;;0.10;99.90;;;;;;4998063;28;20060;-56
2021/12/23 08:53:08;;;;;;;41.47;18.75;;;0.10;99.90;;;;;;5004558;28;20034;-59
2021/12/23 08:55:34;;;;;;;36.00;18.55;;;0.20;99.90;;;;;;4997417;28;20557;-55
2021/12/23 08:58:04;;;;;;;34.50;19.00;;;0.30;99.90;;;;;;4998329;28;20030;-55
2021/12/23 09:00:30;;;;;;;32.53;18.02;;;0.20;99.90;;;;;;5001567;28;20041;-57
2021/12/23 09:02:56;;;;;;;36.15;18.75;;;0.30;99.90;;;;;;5001291;28;20112;-59
2021/12/23 09:05:23;;;;;;;34.38;17.65;;;0.30;99.90;;;;;;5005562;28;20033;-57
2021/12/23 09:07:50;;;;;;;37.85;20.02;;;0.40;99.90;;;;;;5002661;28;20033;-56
2021/12/23 09:10:16;;;;;;;35.92;18.63;;;0.40;99.90;;;;;;4999919;28;20037;-51
2021/12/23 09:12:42;;;;;;;32.83;17.83;;;0.40;99.90;;;;;;5003125;28;20026;-57
2021/12/23 09:15:09;;;;;;;34.63;18.80;;;0.50;99.90;;;;;;4999207;28;20033;-56
2021/12/23 09:17:35;;;;;;;35.00;18.70;;;0.50;99.90;;;;;;4994079;28;20048;-55
2021/12/23 09:20:02;;;;;;;34.08;18.15;;;0.60;99.90;;;;;;5001804;28;20415;-56
2021/12/23 09:22:28;;;;;;;36.28;18.42;;;0.60;99.90;;;;;;4998833;28;20030;-58
2021/12/23 09:24:57;;;;;;;29.98;17.25;;;0.60;99.90;;;;;;4999880;28;20085;-57
2021/12/23 09:27:39;;;;;;;35.03;18.10;;;0.70;99.90;;;;;;5006915;28;20018;-59
2021/12/23 09:32:53;;;;;;;37.28;18.65;;;0.70;99.90;;;;;;5001768;28;20033;-57
2021/12/23 09:35:25;;;;;;;35.35;18.58;;;0.80;99.90;;;;;;5006506;28;20116;-58
2021/12/23 09:37:51;;;;;;;34.53;18.00;;;0.90;99.90;;;;;;5010271;28;20030;-58
2021/12/23 09:40:18;;;;;;;39.72;19.65;;;0.90;99.90;;;;;;5014111;28;20099;-59
2021/12/23 09:42:46;;;;;;;33.95;19.17;;;0.90;99.90;;;;;;5005237;28;20029;-59
2021/12/23 09:45:17;;;;;;;35.35;18.55;;;0.90;99.90;;;;;;5002725;28;20029;-57
2021/12/23 09:47:48;;;;;;;37.20;19.80;;;0.90;99.90;;;;;;4904805;28;20022;-58
2021/12/23 09:50:19;;;;;;;33.75;17.10;;;1.10;99.90;;;;;;4812192;28;20582;-57
2021/12/23 09:52:47;;;;;;;36.55;19.15;;;1.10;99.90;;;;;;5002720;28;20550;-56
2021/12/23 09:55:14;;;;;;;38.45;19.95;;;1.20;99.90;;;;;;5006779;28;20018;-57
2021/12/23 09:57:40;;;;;;;40.95;20.70;;;1.30;99.90;;;;;;5010642;28;20037;-60
2021/12/23 10:00:11;;;;;;;33.33;19.33;;;1.40;99.90;;;;;;5008600;28;20032;-60
2021/12/23 10:02:40;;;;;;;33.88;18.40;;;1.50;99.90;;;;;;5006549;28;20404;-55
2021/12/23 10:05:09;;;;;;;32.97;17.35;;;1.50;99.90;;;;;;5009211;28;20063;-59
2021/12/23 10:07:35;;;;;;;35.15;18.52;;;1.60;99.90;;;;;;5005444;28;20483;-53
2021/12/23 10:10:11;;;;;;;33.60;18.63;;;1.70;99.90;;;;;;5000779;28;20468;-56
2021/12/23 10:31:52;;;;;;;34.65;17.30;;;2.10;99.90;;;;;;4996171;28;20660;-58
2021/12/23 10:37:18;;;;;;;33.88;18.10;;;2.10;99.90;;;;;;5001414;28;20041;-57
2021/12/23 10:40:10;;;;;;;32.63;17.60;;;2.30;99.90;;;;;;4998112;28;20025;-58
2021/12/23 10:42:36;;;;;;;34.30;17.90;;;2.20;99.90;;;;;;5002942;28;20034;-55
2021/12/23 10:45:09;;;;;;;38.00;19.88;;;2.20;99.90;;;;;;5000309;28;20057;-54
2021/12/23 10:50:33;;;;;;;32.03;17.83;;;2.40;99.90;;;;;;5004705;28;20022;-57
2021/12/23 10:53:07;;;;;;;34.65;18.10;;;2.50;99.90;;;;;;5005304;28;20022;-58
2021/12/23 10:58:18;;;;;;;34.97;18.70;;;2.80;99.90;;;;;;5000631;28;20085;-59
2021/12/23 11:00:51;;;;;;;33.53;17.88;;;2.90;99.90;;;;;;4994347;28;20022;-56
2021/12/23 11:03:29;;;;;;;31.40;17.10;;;3.00;99.90;;;;;;4989857;28;20436;-55
2021/12/23 11:06:37;;;;;;;32.17;16.80;;;3.00;99.90;;;;;;4991965;28;20034;-57
2021/12/23 11:27:18;;;;;;;32.55;16.33;;;2.90;99.90;;;;;;5003267;28;20040;-55
2021/12/23 11:41:48;;;;;;;31.95;18.10;;;3.30;99.90;;;;;;4999424;28;20119;-58
2021/12/23 11:44:14;;;;;;;36.10;17.38;;;3.40;99.90;;;;;;5000504;28;20114;-56
2021/12/23 11:46:55;;;;;;;34.08;17.27;;;3.40;99.90;;;;;;5005675;28;20513;-56
2021/12/23 11:49:21;;;;;;;28.52;16.10;;;3.40;99.90;;;;;;5004176;28;20029;-56
2021/12/23 11:54:28;;;;;;;30.52;16.40;;;3.30;99.90;;;;;;5004217;28;20022;-58
2021/12/23 11:57:07;;;;;;;33.10;17.67;;;3.30;99.90;;;;;;5004624;28;20387;-58
2021/12/23 11:59:35;;;;;;;33.22;16.85;;;3.40;99.90;;;;;;5009828;28;20105;-59
2021/12/23 12:02:10;;;;;;;33.78;17.75;;;3.20;99.90;;;;;;5009307;28;20033;-57
2021/12/23 12:04:37;;;;;;;33.25;16.75;;;3.20;99.90;;;;;;5011575;28;20038;-54
2021/12/23 12:07:12;;;;;;;32.70;17.08;;;3.20;99.90;;;;;;5011361;28;20030;-56
2021/12/23 12:09:55;;;;;;;32.85;17.52;;;3.20;99.90;;;;;;5010473;28;20037;-54
2021/12/23 12:12:21;;;;;;;33.88;17.90;;;3.20;99.90;;;;;;5010452;28;20156;-54
2021/12/23 12:14:47;;;;;;;30.65;16.48;;;3.30;99.90;;;;;;5006452;28;20458;-56
2021/12/23 12:19:59;;;;;;;36.17;18.25;;;3.20;99.90;;;;;;4992094;28;20048;-58
2021/12/23 12:22:52;;;;;;;32.13;16.90;;;3.20;99.90;;;;;;4997288;28;20160;-57
2021/12/23 12:25:26;;;;;;;30.08;16.48;;;3.30;99.90;;;;;;5011914;28;20036;-58
2021/12/23 12:27:55;;;;;;;36.85;18.50;;;3.40;99.90;;;;;;5012100;28;20041;-57
2021/12/23 12:30:34;;;;;;;34.05;17.13;;;3.30;99.90;;;;;;5013608;28;20036;-57
2021/12/23 12:33:02;;;;;;;33.40;18.23;;;3.30;99.90;;;;;;5013075;28;20480;-58
2021/12/23 12:35:28;;;;;;;35.78;17.60;;;3.30;99.90;;;;;;5034323;23;20057;-56
2021/12/23 12:37:54;;;;;;;38.13;18.33;;;3.30;99.90;;;;;;5007881;28;20027;-56
2021/12/23 12:40:28;;;;;;;30.40;17.38;;;3.20;99.90;;;;;;4993287;28;20029;-59
2021/12/23 12:42:54;;;;;;;32.30;16.30;;;3.20;99.90;;;;;;4993394;28;20373;-59
2021/12/23 12:45:26;;;;;;;34.55;17.08;;;3.20;99.90;;;;;;4993400;28;20027;-57
2021/12/23 12:48:00;;;;;;;32.78;17.52;;;3.20;99.90;;;;;;4973894;28;20604;-58
2021/12/23 12:50:28;;;;;;;30.23;16.95;;;3.20;99.90;;;;;;4974067;28;20081;-59
2021/12/23 12:53:04;;;;;;;33.83;17.75;;;3.20;99.90;;;;;;4973657;28;20031;-57
2021/12/23 12:55:30;;;;;;;30.33;16.48;;;3.20;99.90;;;;;;4982769;28;20030;-59
2021/12/23 12:57:58;;;;;;;34.83;18.73;;;3.30;99.90;;;;;;4992089;28;20089;-58
2021/12/23 13:00:33;;;;;;;32.03;17.13;;;3.30;99.90;;;;;;4993293;28;20106;-56
2021/12/23 13:03:19;;;;;;;34.38;17.02;;;3.30;99.90;;;;;;4993097;28;20440;-56
2021/12/23 13:05:46;;;;;;;34.63;18.05;;;3.30;99.90;;;;;;4993247;28;20026;-58
2021/12/23 13:08:33;;;;;;;27.67;15.70;;;3.30;99.90;;;;;;4992928;28;20026;-56
2021/12/23 13:11:16;;;;;;;31.98;17.08;;;3.30;99.90;;;;;;4992893;28;20027;-56
2021/12/23 13:13:45;;;;;;;34.10;17.88;;;3.40;99.90;;;;;;4992901;28;20105;-58
2021/12/23 13:16:23;;;;;;;32.03;16.80;;;3.50;99.90;;;;;;4993190;28;20369;-57
2021/12/23 13:19:12;;;;;;;34.80;17.48;;;3.60;99.90;;;;;;4993091;28;20113;-59
2021/12/23 13:21:42;;;;;;;29.58;16.42;;;3.80;99.90;;;;;;4992777;28;20026;-59
2021/12/23 13:24:13;;;;;;;30.52;15.77;;;3.90;99.90;;;;;;4992079;28;20052;-56
2021/12/23 13:26:39;;;;;;;29.60;16.48;;;3.90;99.90;;;;;;4992158;28;20088;-58
2021/12/23 13:29:08;;;;;;;32.22;15.90;;;4.00;99.90;;;;;;4992336;28;20045;-59
2021/12/23 13:31:36;;;;;;;32.67;17.27;;;4.00;99.90;;;;;;4992751;28;20030;-56
2021/12/23 13:34:09;;;;;;;34.00;16.48;;;3.90;99.90;;;;;;4991731;28;20034;-57
2021/12/23 13:36:47;;;;;;;36.17;18.05;;;4.00;99.90;;;;;;4992546;28;20042;-58
2021/12/23 13:39:31;;;;;;;32.38;18.25;;;4.00;99.90;;;;;;4992113;28;20046;-59
2021/12/23 13:41:59;;;;;;;29.90;16.42;;;4.00;99.90;;;;;;4977797;28;20555;-59
2021/12/23 13:44:27;;;;;;;33.67;16.80;;;3.90;99.90;;;;;;4992271;28;20515;-59